sensor_id;sensor_type;location;lat;lon;timestamp;P1;durP1;ratioP1;P2;durP2;ratioP2
19679;SDS011;9989;48.962;9.182;2022-10-15T00:01:08;5.63;;;2.13;;
19679;SDS011;9989;48.962;9.182;2022-10-15T00:03:36;4.13;;;1.73;;
19679;SDS011;9989;48.962;9.182;2022-10-15T00:06:07;4.47;;;1.93;;
19679;SDS011;9989;48.962;9.182;2022-10-15T00:08:34;4.97;;;2.20;;
19679;SDS011;9989;48.962;9.182;2022-10-15T00:11:01;4.87;;;1.93;;
19679;SDS011;9989;48.962;9.182;2022-10-15T00:13:28;4.57;;;2.13;;
19679;SDS011;9989;48.962;9.182;2022-10-15T00:15:53;4.80;;;2.03;;
19679;SDS011;9989;48.962;9.182;2022-10-15T00:18:19;6.00;;;2.20;;
19679;SDS011;9989;48.962;9.182;2022-10-15T00:20:44;4.97;;;2.30;;
19679;SDS011;9989;48.962;9.182;2022-10-15T00:23:10;7.47;;;2.17;;
19679;SDS011;9989;48.962;9.182;2022-10-15T00:25:35;5.20;;;2.10;;
19679;SDS011;9989;48.962;9.182;2022-10-15T00:28:02;5.57;;;2.00;;
19679;SDS011;9989;48.962;9.182;2022-10-15T00:30:27;5.27;;;2.13;;
19679;SDS011;9989;48.962;9.182;2022-10-15T00:32:53;6.10;;;2.10;;
19679;SDS011;9989;48.962;9.182;2022-10-15T00:35:18;5.77;;;2.10;;
19679;SDS011;9989;48.962;9.182;2022-10-15T00:37:44;4.40;;;1.87;;
19679;SDS011;9989;48.962;9.182;2022-10-15T00:40:10;5.47;;;1.90;;
19679;SDS011;9989;48.962;9.182;2022-10-15T00:42:38;4.30;;;1.80;;
19679;SDS011;9989;48.962;9.182;2022-10-15T00:45:04;6.03;;;1.97;;
19679;SDS011;9989;48.962;9.182;2022-10-15T00:47:37;4.37;;;2.00;;
19679;SDS011;9989;48.962;9.182;2022-10-15T00:50:16;6.23;;;1.97;;
19679;SDS011;9989;48.962;9.182;2022-10-15T00:55:23;3.87;;;1.67;;
19679;SDS011;9989;48.962;9.182;2022-10-15T00:57:52;4.30;;;1.80;;
19679;SDS011;9989;48.962;9.182;2022-10-15T01:00:19;3.47;;;1.60;;
19679;SDS011;9989;48.962;9.182;2022-10-15T01:02:45;2.90;;;1.60;;
19679;SDS011;9989;48.962;9.182;2022-10-15T01:05:11;6.27;;;1.70;;
19679;SDS011;9989;48.962;9.182;2022-10-15T01:07:40;5.07;;;1.80;;
19679;SDS011;9989;48.962;9.182;2022-10-15T01:10:05;3.47;;;1.70;;
19679;SDS011;9989;48.962;9.182;2022-10-15T01:13:09;4.30;;;1.80;;
19679;SDS011;9989;48.962;9.182;2022-10-15T01:16:07;4.93;;;1.70;;
19679;SDS011;9989;48.962;9.182;2022-10-15T01:18:20;4.70;;;1.40;;
19679;SDS011;9989;48.962;9.182;2022-10-15T01:37:59;3.37;;;1.37;;
19679;SDS011;9989;48.962;9.182;2022-10-15T01:41:07;2.73;;;1.20;;
19679;SDS011;9989;48.962;9.182;2022-10-15T01:43:38;3.20;;;1.53;;
19679;SDS011;9989;48.962;9.182;2022-10-15T01:47:07;3.53;;;1.60;;
19679;SDS011;9989;48.962;9.182;2022-10-15T01:49:16;7.77;;;1.80;;
19679;SDS011;9989;48.962;9.182;2022-10-15T01:51:46;2.33;;;1.30;;
19679;SDS011;9989;48.962;9.182;2022-10-15T01:54:14;4.23;;;1.40;;
19679;SDS011;9989;48.962;9.182;2022-10-15T01:56:42;4.60;;;1.40;;
19679;SDS011;9989;48.962;9.182;2022-10-15T01:59:14;2.53;;;1.30;;
19679;SDS011;9989;48.962;9.182;2022-10-15T02:01:42;3.73;;;1.33;;
19679;SDS011;9989;48.962;9.182;2022-10-15T02:04:21;2.70;;;1.23;;
19679;SDS011;9989;48.962;9.182;2022-10-15T02:06:57;4.53;;;1.53;;
19679;SDS011;9989;48.962;9.182;2022-10-15T02:11:57;2.87;;;1.40;;
19679;SDS011;9989;48.962;9.182;2022-10-15T02:14:36;3.17;;;1.40;;
19679;SDS011;9989;48.962;9.182;2022-10-15T02:17:09;2.07;;;1.10;;
19679;SDS011;9989;48.962;9.182;2022-10-15T02:22:25;3.13;;;1.40;;
19679;SDS011;9989;48.962;9.182;2022-10-15T02:25:11;2.10;;;0.97;;
19679;SDS011;9989;48.962;9.182;2022-10-15T02:27:46;1.70;;;0.90;;
19679;SDS011;9989;48.962;9.182;2022-10-15T02:30:14;3.97;;;0.90;;
19679;SDS011;9989;48.962;9.182;2022-10-15T02:32:41;0.93;;;0.77;;
19679;SDS011;9989;48.962;9.182;2022-10-15T02:35:11;1.57;;;0.70;;
19679;SDS011;9989;48.962;9.182;2022-10-15T02:37:36;2.13;;;0.80;;
19679;SDS011;9989;48.962;9.182;2022-10-15T02:40:07;1.43;;;0.80;;
19679;SDS011;9989;48.962;9.182;2022-10-15T02:42:33;1.60;;;0.90;;
19679;SDS011;9989;48.962;9.182;2022-10-15T02:44:59;2.13;;;0.80;;
19679;SDS011;9989;48.962;9.182;2022-10-15T02:47:24;1.93;;;0.80;;
19679;SDS011;9989;48.962;9.182;2022-10-15T02:49:50;1.70;;;0.60;;
19679;SDS011;9989;48.962;9.182;2022-10-15T02:52:15;1.60;;;0.80;;
19679;SDS011;9989;48.962;9.182;2022-10-15T02:54:41;1.50;;;0.80;;
19679;SDS011;9989;48.962;9.182;2022-10-15T02:57:06;2.43;;;0.97;;
19679;SDS011;9989;48.962;9.182;2022-10-15T02:59:32;0.93;;;0.57;;
19679;SDS011;9989;48.962;9.182;2022-10-15T03:01:58;1.80;;;0.87;;
19679;SDS011;9989;48.962;9.182;2022-10-15T03:04:23;1.20;;;0.77;;
19679;SDS011;9989;48.962;9.182;2022-10-15T03:06:49;4.63;;;1.00;;
19679;SDS011;9989;48.962;9.182;2022-10-15T03:09:15;1.17;;;0.90;;
19679;SDS011;9989;48.962;9.182;2022-10-15T03:11:40;1.70;;;0.90;;
19679;SDS011;9989;48.962;9.182;2022-10-15T03:14:06;1.27;;;0.70;;
19679;SDS011;9989;48.962;9.182;2022-10-15T03:16:31;1.83;;;0.77;;
19679;SDS011;9989;48.962;9.182;2022-10-15T03:18:57;1.17;;;0.80;;
19679;SDS011;9989;48.962;9.182;2022-10-15T03:21:22;2.57;;;0.83;;
19679;SDS011;9989;48.962;9.182;2022-10-15T03:23:48;1.43;;;1.10;;
19679;SDS011;9989;48.962;9.182;2022-10-15T03:26:14;0.87;;;0.70;;
19679;SDS011;9989;48.962;9.182;2022-10-15T03:28:39;3.90;;;0.80;;
19679;SDS011;9989;48.962;9.182;2022-10-15T03:31:05;1.73;;;0.80;;
19679;SDS011;9989;48.962;9.182;2022-10-15T03:33:30;1.73;;;0.70;;
19679;SDS011;9989;48.962;9.182;2022-10-15T03:35:56;3.00;;;1.20;;
19679;SDS011;9989;48.962;9.182;2022-10-15T03:38:22;3.33;;;1.10;;
19679;SDS011;9989;48.962;9.182;2022-10-15T03:40:47;3.10;;;0.90;;
19679;SDS011;9989;48.962;9.182;2022-10-15T03:43:13;1.03;;;0.70;;
19679;SDS011;9989;48.962;9.182;2022-10-15T03:45:38;1.67;;;0.80;;
19679;SDS011;9989;48.962;9.182;2022-10-15T03:48:04;1.83;;;0.80;;
19679;SDS011;9989;48.962;9.182;2022-10-15T03:50:30;2.47;;;1.03;;
19679;SDS011;9989;48.962;9.182;2022-10-15T03:52:56;3.23;;;0.90;;
19679;SDS011;9989;48.962;9.182;2022-10-15T03:55:21;3.60;;;0.77;;
19679;SDS011;9989;48.962;9.182;2022-10-15T03:57:47;1.43;;;0.80;;
19679;SDS011;9989;48.962;9.182;2022-10-15T04:00:12;2.23;;;0.73;;
19679;SDS011;9989;48.962;9.182;2022-10-15T04:02:38;4.57;;;0.73;;
19679;SDS011;9989;48.962;9.182;2022-10-15T04:05:04;1.50;;;1.00;;
19679;SDS011;9989;48.962;9.182;2022-10-15T04:07:30;0.90;;;0.70;;
19679;SDS011;9989;48.962;9.182;2022-10-15T04:09:55;1.77;;;0.70;;
19679;SDS011;9989;48.962;9.182;2022-10-15T04:12:24;2.67;;;0.83;;
19679;SDS011;9989;48.962;9.182;2022-10-15T04:14:50;2.80;;;0.77;;
19679;SDS011;9989;48.962;9.182;2022-10-15T04:17:15;0.73;;;0.60;;
19679;SDS011;9989;48.962;9.182;2022-10-15T04:19:41;2.83;;;0.60;;
19679;SDS011;9989;48.962;9.182;2022-10-15T04:22:06;3.27;;;1.00;;
19679;SDS011;9989;48.962;9.182;2022-10-15T04:24:32;3.07;;;0.80;;
19679;SDS011;9989;48.962;9.182;2022-10-15T04:26:57;0.50;;;0.50;;
19679;SDS011;9989;48.962;9.182;2022-10-15T04:29:23;3.47;;;0.80;;
19679;SDS011;9989;48.962;9.182;2022-10-15T04:31:48;1.10;;;0.57;;
19679;SDS011;9989;48.962;9.182;2022-10-15T04:34:14;0.73;;;0.50;;
19679;SDS011;9989;48.962;9.182;2022-10-15T04:36:40;1.67;;;0.77;;
19679;SDS011;9989;48.962;9.182;2022-10-15T04:39:05;1.17;;;0.60;;
19679;SDS011;9989;48.962;9.182;2022-10-15T04:41:31;0.50;;;0.50;;
19679;SDS011;9989;48.962;9.182;2022-10-15T04:43:57;1.33;;;0.50;;
19679;SDS011;9989;48.962;9.182;2022-10-15T04:46:23;2.80;;;0.70;;
19679;SDS011;9989;48.962;9.182;2022-10-15T04:48:49;1.70;;;0.80;;
19679;SDS011;9989;48.962;9.182;2022-10-15T04:51:15;1.47;;;0.70;;
19679;SDS011;9989;48.962;9.182;2022-10-15T04:53:43;1.37;;;0.80;;
19679;SDS011;9989;48.962;9.182;2022-10-15T04:56:12;0.77;;;0.60;;
19679;SDS011;9989;48.962;9.182;2022-10-15T04:58:43;1.13;;;0.70;;
19679;SDS011;9989;48.962;9.182;2022-10-15T05:01:11;0.67;;;0.50;;
19679;SDS011;9989;48.962;9.182;2022-10-15T05:03:39;2.63;;;1.00;;
19679;SDS011;9989;48.962;9.182;2022-10-15T05:06:08;1.07;;;0.60;;
19679;SDS011;9989;48.962;9.182;2022-10-15T05:08:36;0.90;;;0.70;;
19679;SDS011;9989;48.962;9.182;2022-10-15T05:13:31;1.47;;;0.80;;
19679;SDS011;9989;48.962;9.182;2022-10-15T05:16:07;0.80;;;0.60;;
19679;SDS011;9989;48.962;9.182;2022-10-15T05:18:50;0.60;;;0.50;;
19679;SDS011;9989;48.962;9.182;2022-10-15T05:21:17;0.97;;;0.50;;
19679;SDS011;9989;48.962;9.182;2022-10-15T05:23:43;2.07;;;0.60;;
19679;SDS011;9989;48.962;9.182;2022-10-15T05:26:10;0.40;;;0.40;;
19679;SDS011;9989;48.962;9.182;2022-10-15T05:28:39;0.90;;;0.67;;
19679;SDS011;9989;48.962;9.182;2022-10-15T05:31:06;2.47;;;1.10;;
19679;SDS011;9989;48.962;9.182;2022-10-15T05:33:33;0.53;;;0.53;;
19679;SDS011;9989;48.962;9.182;2022-10-15T05:36:19;1.23;;;0.60;;
19679;SDS011;9989;48.962;9.182;2022-10-15T05:38:50;1.00;;;0.60;;
19679;SDS011;9989;48.962;9.182;2022-10-15T05:41:18;1.27;;;0.77;;
19679;SDS011;9989;48.962;9.182;2022-10-15T05:43:47;1.00;;;0.60;;
19679;SDS011;9989;48.962;9.182;2022-10-15T05:46:15;4.77;;;1.30;;
19679;SDS011;9989;48.962;9.182;2022-10-15T05:48:41;3.63;;;1.10;;
19679;SDS011;9989;48.962;9.182;2022-10-15T05:51:09;6.73;;;1.60;;
19679;SDS011;9989;48.962;9.182;2022-10-15T05:53:36;2.00;;;1.00;;
19679;SDS011;9989;48.962;9.182;2022-10-15T05:56:02;2.73;;;1.00;;
19679;SDS011;9989;48.962;9.182;2022-10-15T05:58:29;6.20;;;1.40;;
19679;SDS011;9989;48.962;9.182;2022-10-15T06:00:57;2.03;;;1.10;;
19679;SDS011;9989;48.962;9.182;2022-10-15T06:03:24;4.33;;;1.20;;
19679;SDS011;9989;48.962;9.182;2022-10-15T06:05:51;3.70;;;1.00;;
19679;SDS011;9989;48.962;9.182;2022-10-15T06:08:16;3.20;;;1.13;;
19679;SDS011;9989;48.962;9.182;2022-10-15T06:10:43;1.70;;;0.80;;
19679;SDS011;9989;48.962;9.182;2022-10-15T06:13:08;2.20;;;1.00;;
19679;SDS011;9989;48.962;9.182;2022-10-15T06:15:37;1.63;;;1.10;;
19679;SDS011;9989;48.962;9.182;2022-10-15T06:18:04;1.17;;;0.80;;
19679;SDS011;9989;48.962;9.182;2022-10-15T06:20:30;1.83;;;0.93;;
19679;SDS011;9989;48.962;9.182;2022-10-15T06:22:56;2.67;;;1.20;;
19679;SDS011;9989;48.962;9.182;2022-10-15T06:25:22;0.90;;;0.70;;
19679;SDS011;9989;48.962;9.182;2022-10-15T06:27:48;1.77;;;0.90;;
19679;SDS011;9989;48.962;9.182;2022-10-15T06:30:14;3.03;;;1.23;;
19679;SDS011;9989;48.962;9.182;2022-10-15T06:32:45;1.77;;;0.80;;
19679;SDS011;9989;48.962;9.182;2022-10-15T06:35:15;1.97;;;1.03;;
19679;SDS011;9989;48.962;9.182;2022-10-15T06:37:41;3.20;;;0.90;;
19679;SDS011;9989;48.962;9.182;2022-10-15T06:40:07;2.27;;;1.00;;
19679;SDS011;9989;48.962;9.182;2022-10-15T06:42:34;1.97;;;1.00;;
19679;SDS011;9989;48.962;9.182;2022-10-15T06:44:59;1.37;;;0.80;;
19679;SDS011;9989;48.962;9.182;2022-10-15T06:47:25;2.87;;;0.87;;
19679;SDS011;9989;48.962;9.182;2022-10-15T06:49:50;4.47;;;0.93;;
19679;SDS011;9989;48.962;9.182;2022-10-15T06:52:16;2.90;;;1.13;;
19679;SDS011;9989;48.962;9.182;2022-10-15T06:54:41;2.03;;;0.90;;
19679;SDS011;9989;48.962;9.182;2022-10-15T06:57:07;2.17;;;1.10;;
19679;SDS011;9989;48.962;9.182;2022-10-15T06:59:33;2.07;;;1.00;;
19679;SDS011;9989;48.962;9.182;2022-10-15T07:01:58;1.07;;;0.80;;
19679;SDS011;9989;48.962;9.182;2022-10-15T07:04:24;2.47;;;1.07;;
19679;SDS011;9989;48.962;9.182;2022-10-15T07:06:49;2.50;;;1.00;;
19679;SDS011;9989;48.962;9.182;2022-10-15T07:09:15;2.73;;;0.80;;
19679;SDS011;9989;48.962;9.182;2022-10-15T07:11:41;1.97;;;1.00;;
19679;SDS011;9989;48.962;9.182;2022-10-15T07:14:06;3.50;;;1.00;;
19679;SDS011;9989;48.962;9.182;2022-10-15T07:16:32;2.07;;;0.90;;
19679;SDS011;9989;48.962;9.182;2022-10-15T07:18:57;2.47;;;1.00;;
19679;SDS011;9989;48.962;9.182;2022-10-15T07:21:23;4.03;;;1.00;;
19679;SDS011;9989;48.962;9.182;2022-10-15T07:23:48;1.93;;;1.13;;
19679;SDS011;9989;48.962;9.182;2022-10-15T07:26:14;3.23;;;1.20;;
19679;SDS011;9989;48.962;9.182;2022-10-15T07:28:40;2.80;;;1.17;;
19679;SDS011;9989;48.962;9.182;2022-10-15T07:31:05;1.97;;;1.10;;
19679;SDS011;9989;48.962;9.182;2022-10-15T07:33:32;2.13;;;1.10;;
19679;SDS011;9989;48.962;9.182;2022-10-15T07:36:04;1.67;;;1.00;;
19679;SDS011;9989;48.962;9.182;2022-10-15T07:38:32;2.23;;;1.23;;
19679;SDS011;9989;48.962;9.182;2022-10-15T07:40:59;5.47;;;2.40;;
19679;SDS011;9989;48.962;9.182;2022-10-15T07:43:25;3.20;;;1.40;;
19679;SDS011;9989;48.962;9.182;2022-10-15T07:45:51;3.27;;;1.60;;
19679;SDS011;9989;48.962;9.182;2022-10-15T07:48:17;3.40;;;1.50;;
19679;SDS011;9989;48.962;9.182;2022-10-15T07:50:43;3.23;;;1.27;;
19679;SDS011;9989;48.962;9.182;2022-10-15T07:53:08;1.80;;;0.90;;
19679;SDS011;9989;48.962;9.182;2022-10-15T07:55:34;2.20;;;1.07;;
19679;SDS011;9989;48.962;9.182;2022-10-15T07:58:00;2.60;;;1.27;;
19679;SDS011;9989;48.962;9.182;2022-10-15T08:00:26;1.83;;;1.00;;
19679;SDS011;9989;48.962;9.182;2022-10-15T08:02:51;2.70;;;1.00;;
19679;SDS011;9989;48.962;9.182;2022-10-15T08:05:17;2.93;;;1.30;;
19679;SDS011;9989;48.962;9.182;2022-10-15T08:07:42;2.50;;;1.03;;
19679;SDS011;9989;48.962;9.182;2022-10-15T08:10:08;3.20;;;1.20;;
19679;SDS011;9989;48.962;9.182;2022-10-15T08:12:35;2.87;;;1.00;;
19679;SDS011;9989;48.962;9.182;2022-10-15T08:15:01;2.97;;;1.10;;
19679;SDS011;9989;48.962;9.182;2022-10-15T08:17:27;2.60;;;1.20;;
19679;SDS011;9989;48.962;9.182;2022-10-15T08:19:52;5.20;;;1.27;;
19679;SDS011;9989;48.962;9.182;2022-10-15T08:22:19;3.17;;;1.20;;
19679;SDS011;9989;48.962;9.182;2022-10-15T08:24:44;3.40;;;1.50;;
19679;SDS011;9989;48.962;9.182;2022-10-15T08:27:10;3.03;;;1.40;;
19679;SDS011;9989;48.962;9.182;2022-10-15T08:29:36;4.10;;;1.37;;
19679;SDS011;9989;48.962;9.182;2022-10-15T08:32:01;3.93;;;1.80;;
19679;SDS011;9989;48.962;9.182;2022-10-15T08:34:27;5.47;;;2.00;;
19679;SDS011;9989;48.962;9.182;2022-10-15T08:36:52;4.27;;;1.87;;
19679;SDS011;9989;48.962;9.182;2022-10-15T08:39:18;5.73;;;2.20;;
19679;SDS011;9989;48.962;9.182;2022-10-15T08:44:14;4.90;;;1.93;;
19679;SDS011;9989;48.962;9.182;2022-10-15T08:46:58;3.17;;;1.37;;
19679;SDS011;9989;48.962;9.182;2022-10-15T08:49:42;2.60;;;1.30;;
19679;SDS011;9989;48.962;9.182;2022-10-15T08:52:25;4.60;;;1.40;;
19679;SDS011;9989;48.962;9.182;2022-10-15T08:55:12;3.47;;;1.50;;
19679;SDS011;9989;48.962;9.182;2022-10-15T09:06:14;3.37;;;1.60;;
19679;SDS011;9989;48.962;9.182;2022-10-15T09:11:35;3.80;;;1.30;;
19679;SDS011;9989;48.962;9.182;2022-10-15T09:14:06;5.63;;;1.87;;
19679;SDS011;9989;48.962;9.182;2022-10-15T09:16:38;4.13;;;1.87;;
19679;SDS011;9989;48.962;9.182;2022-10-15T09:19:18;5.53;;;1.80;;
19679;SDS011;9989;48.962;9.182;2022-10-15T09:21:50;9.37;;;1.60;;
19679;SDS011;9989;48.962;9.182;2022-10-15T09:24:23;5.97;;;2.00;;
19679;SDS011;9989;48.962;9.182;2022-10-15T09:29:46;4.07;;;1.80;;
19679;SDS011;9989;48.962;9.182;2022-10-15T09:32:27;2.93;;;1.27;;
19679;SDS011;9989;48.962;9.182;2022-10-15T09:43:40;3.13;;;1.13;;
19679;SDS011;9989;48.962;9.182;2022-10-15T09:46:08;6.60;;;1.70;;
19679;SDS011;9989;48.962;9.182;2022-10-15T09:48:39;3.33;;;1.40;;
19679;SDS011;9989;48.962;9.182;2022-10-15T09:51:32;4.47;;;1.27;;
19679;SDS011;9989;48.962;9.182;2022-10-15T09:54:09;2.07;;;1.13;;
19679;SDS011;9989;48.962;9.182;2022-10-15T09:56:38;3.10;;;1.20;;
19679;SDS011;9989;48.962;9.182;2022-10-15T09:59:14;5.17;;;1.47;;
19679;SDS011;9989;48.962;9.182;2022-10-15T10:02:03;2.93;;;1.27;;
19679;SDS011;9989;48.962;9.182;2022-10-15T10:04:42;2.87;;;1.40;;
19679;SDS011;9989;48.962;9.182;2022-10-15T10:07:22;4.37;;;1.60;;
19679;SDS011;9989;48.962;9.182;2022-10-15T10:10:03;2.77;;;1.50;;
19679;SDS011;9989;48.962;9.182;2022-10-15T10:12:31;5.73;;;1.43;;
19679;SDS011;9989;48.962;9.182;2022-10-15T10:15:00;6.70;;;1.60;;
19679;SDS011;9989;48.962;9.182;2022-10-15T10:17:30;1.37;;;0.90;;
19679;SDS011;9989;48.962;9.182;2022-10-15T10:22:41;2.90;;;1.10;;
19679;SDS011;9989;48.962;9.182;2022-10-15T10:27:51;1.37;;;0.77;;
19679;SDS011;9989;48.962;9.182;2022-10-15T10:30:20;2.00;;;0.83;;
19679;SDS011;9989;48.962;9.182;2022-10-15T10:32:47;1.60;;;0.73;;
19679;SDS011;9989;48.962;9.182;2022-10-15T10:35:22;0.70;;;0.50;;
19679;SDS011;9989;48.962;9.182;2022-10-15T10:37:50;1.47;;;0.70;;
19679;SDS011;9989;48.962;9.182;2022-10-15T10:40:21;1.83;;;0.87;;
19679;SDS011;9989;48.962;9.182;2022-10-15T10:46:16;0.60;;;0.60;;
19679;SDS011;9989;48.962;9.182;2022-10-15T10:51:12;4.87;;;0.87;;
19679;SDS011;9989;48.962;9.182;2022-10-15T10:53:47;4.20;;;0.87;;
19679;SDS011;9989;48.962;9.182;2022-10-15T10:56:17;2.00;;;0.80;;
19679;SDS011;9989;48.962;9.182;2022-10-15T10:58:47;1.33;;;0.80;;
19679;SDS011;9989;48.962;9.182;2022-10-15T11:01:17;2.20;;;0.60;;
19679;SDS011;9989;48.962;9.182;2022-10-15T11:03:44;0.83;;;0.53;;
19679;SDS011;9989;48.962;9.182;2022-10-15T11:06:16;2.90;;;0.73;;
19679;SDS011;9989;48.962;9.182;2022-10-15T11:11:47;4.70;;;0.70;;
19679;SDS011;9989;48.962;9.182;2022-10-15T11:19:28;1.67;;;0.60;;
19679;SDS011;9989;48.962;9.182;2022-10-15T11:24:28;1.63;;;0.50;;
19679;SDS011;9989;48.962;9.182;2022-10-15T11:29:50;1.07;;;0.70;;
19679;SDS011;9989;48.962;9.182;2022-10-15T11:46:26;4.47;;;0.97;;
19679;SDS011;9989;48.962;9.182;2022-10-15T11:57:13;0.47;;;0.47;;
19679;SDS011;9989;48.962;9.182;2022-10-15T12:02:31;2.93;;;0.80;;
19679;SDS011;9989;48.962;9.182;2022-10-15T12:05:06;1.50;;;0.70;;
19679;SDS011;9989;48.962;9.182;2022-10-15T12:20:52;2.53;;;0.90;;
19679;SDS011;9989;48.962;9.182;2022-10-15T12:23:37;2.33;;;0.87;;
19679;SDS011;9989;48.962;9.182;2022-10-15T12:26:25;3.67;;;1.10;;
19679;SDS011;9989;48.962;9.182;2022-10-15T12:28:54;3.10;;;1.00;;
19679;SDS011;9989;48.962;9.182;2022-10-15T12:31:22;1.73;;;0.87;;
19679;SDS011;9989;48.962;9.182;2022-10-15T12:33:52;2.27;;;1.00;;
19679;SDS011;9989;48.962;9.182;2022-10-15T12:36:20;2.03;;;1.00;;
19679;SDS011;9989;48.962;9.182;2022-10-15T12:39:00;2.13;;;1.00;;
19679;SDS011;9989;48.962;9.182;2022-10-15T12:41:40;5.57;;;1.43;;
19679;SDS011;9989;48.962;9.182;2022-10-15T12:44:14;2.93;;;0.97;;
19679;SDS011;9989;48.962;9.182;2022-10-15T12:46:46;1.20;;;0.70;;
19679;SDS011;9989;48.962;9.182;2022-10-15T12:51:50;1.80;;;0.97;;
19679;SDS011;9989;48.962;9.182;2022-10-15T12:54:33;3.10;;;1.20;;
19679;SDS011;9989;48.962;9.182;2022-10-15T12:57:01;2.07;;;1.10;;
19679;SDS011;9989;48.962;9.182;2022-10-15T12:59:53;2.27;;;1.00;;
19679;SDS011;9989;48.962;9.182;2022-10-15T13:04:57;3.60;;;1.00;;
19679;SDS011;9989;48.962;9.182;2022-10-15T13:07:23;2.20;;;0.90;;
19679;SDS011;9989;48.962;9.182;2022-10-15T13:09:49;2.17;;;1.03;;
19679;SDS011;9989;48.962;9.182;2022-10-15T13:12:22;1.80;;;1.00;;
19679;SDS011;9989;48.962;9.182;2022-10-15T13:14:54;2.57;;;1.20;;
19679;SDS011;9989;48.962;9.182;2022-10-15T13:17:23;2.10;;;1.00;;
19679;SDS011;9989;48.962;9.182;2022-10-15T13:19:55;2.63;;;1.00;;
19679;SDS011;9989;48.962;9.182;2022-10-15T13:22:22;1.10;;;0.80;;
19679;SDS011;9989;48.962;9.182;2022-10-15T13:24:53;2.60;;;0.90;;
19679;SDS011;9989;48.962;9.182;2022-10-15T13:27:28;2.00;;;1.10;;
19679;SDS011;9989;48.962;9.182;2022-10-15T13:29:59;3.70;;;1.20;;
19679;SDS011;9989;48.962;9.182;2022-10-15T13:32:26;4.47;;;1.90;;
19679;SDS011;9989;48.962;9.182;2022-10-15T13:34:54;2.87;;;1.50;;
19679;SDS011;9989;48.962;9.182;2022-10-15T13:37:29;3.37;;;1.40;;
19679;SDS011;9989;48.962;9.182;2022-10-15T13:39:57;1.93;;;1.10;;
19679;SDS011;9989;48.962;9.182;2022-10-15T13:42:24;3.23;;;1.57;;
19679;SDS011;9989;48.962;9.182;2022-10-15T13:45:00;3.30;;;1.20;;
19679;SDS011;9989;48.962;9.182;2022-10-15T13:47:36;3.63;;;1.13;;
19679;SDS011;9989;48.962;9.182;2022-10-15T13:52:50;4.80;;;1.40;;
19679;SDS011;9989;48.962;9.182;2022-10-15T13:55:32;3.37;;;1.60;;
19679;SDS011;9989;48.962;9.182;2022-10-15T13:58:03;4.03;;;1.63;;
19679;SDS011;9989;48.962;9.182;2022-10-15T14:00:39;6.20;;;1.57;;
19679;SDS011;9989;48.962;9.182;2022-10-15T14:03:05;4.33;;;1.90;;
19679;SDS011;9989;48.962;9.182;2022-10-15T14:05:38;5.17;;;1.40;;
19679;SDS011;9989;48.962;9.182;2022-10-15T14:08:04;3.80;;;1.10;;
19679;SDS011;9989;48.962;9.182;2022-10-15T14:10:30;3.20;;;1.00;;
19679;SDS011;9989;48.962;9.182;2022-10-15T14:12:55;4.93;;;1.30;;
19679;SDS011;9989;48.962;9.182;2022-10-15T14:18:27;3.37;;;1.60;;
19679;SDS011;9989;48.962;9.182;2022-10-15T14:21:01;6.00;;;1.77;;
19679;SDS011;9989;48.962;9.182;2022-10-15T14:23:28;3.30;;;1.50;;
19679;SDS011;9989;48.962;9.182;2022-10-15T14:25:55;4.57;;;1.50;;
19679;SDS011;9989;48.962;9.182;2022-10-15T14:28:26;3.03;;;1.20;;
19679;SDS011;9989;48.962;9.182;2022-10-15T14:30:54;3.30;;;1.40;;
19679;SDS011;9989;48.962;9.182;2022-10-15T14:38:30;7.93;;;3.43;;
19679;SDS011;9989;48.962;9.182;2022-10-15T14:40:57;2.90;;;1.50;;
19679;SDS011;9989;48.962;9.182;2022-10-15T14:43:28;3.80;;;1.50;;
19679;SDS011;9989;48.962;9.182;2022-10-15T14:45:57;3.00;;;1.37;;
19679;SDS011;9989;48.962;9.182;2022-10-15T14:50:56;3.47;;;1.77;;
19679;SDS011;9989;48.962;9.182;2022-10-15T14:53:24;2.20;;;1.30;;
19679;SDS011;9989;48.962;9.182;2022-10-15T14:55:56;3.53;;;1.00;;
19679;SDS011;9989;48.962;9.182;2022-10-15T14:58:26;3.90;;;1.87;;
19679;SDS011;9989;48.962;9.182;2022-10-15T15:00:55;3.93;;;1.43;;
19679;SDS011;9989;48.962;9.182;2022-10-15T15:03:27;5.13;;;2.00;;
19679;SDS011;9989;48.962;9.182;2022-10-15T15:05:55;3.47;;;1.47;;
19679;SDS011;9989;48.962;9.182;2022-10-15T15:08:23;6.50;;;1.80;;
19679;SDS011;9989;48.962;9.182;2022-10-15T15:10:49;4.97;;;1.60;;
19679;SDS011;9989;48.962;9.182;2022-10-15T15:13:19;3.20;;;1.20;;
19679;SDS011;9989;48.962;9.182;2022-10-15T15:15:45;3.03;;;1.13;;
19679;SDS011;9989;48.962;9.182;2022-10-15T15:18:11;4.73;;;1.70;;
19679;SDS011;9989;48.962;9.182;2022-10-15T15:20:38;6.03;;;1.80;;
19679;SDS011;9989;48.962;9.182;2022-10-15T15:23:05;7.50;;;2.60;;
19679;SDS011;9989;48.962;9.182;2022-10-15T15:25:33;5.50;;;2.10;;
19679;SDS011;9989;48.962;9.182;2022-10-15T15:28:01;6.10;;;2.13;;
19679;SDS011;9989;48.962;9.182;2022-10-15T15:30:27;3.40;;;1.30;;
19679;SDS011;9989;48.962;9.182;2022-10-15T15:32:55;5.27;;;2.40;;
19679;SDS011;9989;48.962;9.182;2022-10-15T15:38:14;5.73;;;1.60;;
19679;SDS011;9989;48.962;9.182;2022-10-15T15:40:44;7.27;;;2.10;;
19679;SDS011;9989;48.962;9.182;2022-10-15T15:43:14;5.20;;;1.70;;
19679;SDS011;9989;48.962;9.182;2022-10-15T15:45:41;2.77;;;1.10;;
19679;SDS011;9989;48.962;9.182;2022-10-15T15:48:07;3.53;;;1.40;;
19679;SDS011;9989;48.962;9.182;2022-10-15T15:50:33;2.67;;;1.30;;
19679;SDS011;9989;48.962;9.182;2022-10-15T15:52:59;4.67;;;1.43;;
19679;SDS011;9989;48.962;9.182;2022-10-15T15:55:25;3.00;;;1.17;;
19679;SDS011;9989;48.962;9.182;2022-10-15T15:57:51;3.27;;;1.47;;
19679;SDS011;9989;48.962;9.182;2022-10-15T16:00:17;4.37;;;1.60;;
19679;SDS011;9989;48.962;9.182;2022-10-15T16:02:43;4.07;;;1.70;;
19679;SDS011;9989;48.962;9.182;2022-10-15T16:05:10;3.23;;;1.40;;
19679;SDS011;9989;48.962;9.182;2022-10-15T16:07:38;3.83;;;1.50;;
19679;SDS011;9989;48.962;9.182;2022-10-15T16:10:04;3.30;;;1.43;;
19679;SDS011;9989;48.962;9.182;2022-10-15T16:12:33;3.73;;;1.60;;
19679;SDS011;9989;48.962;9.182;2022-10-15T16:14:59;4.37;;;2.10;;
19679;SDS011;9989;48.962;9.182;2022-10-15T16:17:25;4.63;;;1.93;;
19679;SDS011;9989;48.962;9.182;2022-10-15T16:19:51;4.60;;;1.90;;
19679;SDS011;9989;48.962;9.182;2022-10-15T16:22:16;5.53;;;2.27;;
19679;SDS011;9989;48.962;9.182;2022-10-15T16:24:42;4.33;;;1.90;;
19679;SDS011;9989;48.962;9.182;2022-10-15T16:27:07;6.70;;;2.20;;
19679;SDS011;9989;48.962;9.182;2022-10-15T16:29:33;5.50;;;2.10;;
19679;SDS011;9989;48.962;9.182;2022-10-15T16:31:59;5.10;;;2.03;;
19679;SDS011;9989;48.962;9.182;2022-10-15T16:34:25;7.30;;;2.30;;
19679;SDS011;9989;48.962;9.182;2022-10-15T16:36:50;4.63;;;1.93;;
19679;SDS011;9989;48.962;9.182;2022-10-15T16:39:16;4.23;;;1.80;;
19679;SDS011;9989;48.962;9.182;2022-10-15T16:41:42;3.80;;;1.73;;
19679;SDS011;9989;48.962;9.182;2022-10-15T16:44:08;3.83;;;1.57;;
19679;SDS011;9989;48.962;9.182;2022-10-15T16:46:33;3.93;;;1.73;;
19679;SDS011;9989;48.962;9.182;2022-10-15T16:48:59;6.63;;;2.60;;
19679;SDS011;9989;48.962;9.182;2022-10-15T16:51:25;10.57;;;4.17;;
19679;SDS011;9989;48.962;9.182;2022-10-15T16:53:50;11.10;;;4.97;;
19679;SDS011;9989;48.962;9.182;2022-10-15T16:56:17;7.87;;;3.60;;
19679;SDS011;9989;48.962;9.182;2022-10-15T16:58:44;5.10;;;1.53;;
19679;SDS011;9989;48.962;9.182;2022-10-15T17:01:11;3.57;;;1.40;;
19679;SDS011;9989;48.962;9.182;2022-10-15T17:03:39;5.07;;;1.40;;
19679;SDS011;9989;48.962;9.182;2022-10-15T17:06:06;3.43;;;1.40;;
19679;SDS011;9989;48.962;9.182;2022-10-15T17:08:38;3.73;;;1.57;;
19679;SDS011;9989;48.962;9.182;2022-10-15T17:11:16;1.93;;;1.10;;
19679;SDS011;9989;48.962;9.182;2022-10-15T17:13:46;3.57;;;1.50;;
19679;SDS011;9989;48.962;9.182;2022-10-15T17:16:18;5.93;;;1.90;;
19679;SDS011;9989;48.962;9.182;2022-10-15T17:18:46;3.53;;;1.67;;
19679;SDS011;9989;48.962;9.182;2022-10-15T17:21:13;5.63;;;1.80;;
19679;SDS011;9989;48.962;9.182;2022-10-15T17:23:41;5.30;;;1.73;;
19679;SDS011;9989;48.962;9.182;2022-10-15T17:26:12;4.70;;;1.80;;
19679;SDS011;9989;48.962;9.182;2022-10-15T17:28:41;3.53;;;1.80;;